Kindersley, Canada
Current Conditions -  °F | °C
As of 11:00 AM on Sunday 23 Nov 2014 (Local Time) from CYKY Reporting Station
Broken Clouds Broken Clouds  
Wind Chill:   Ceiling: 24000
Heat Index: 14°   Visibility: 15mi
Dew Point:   Wind: 9mph
Humidity: 79%   Direction: 310°NW
Pressure: 29.82"   Gusts: NA
Location:  51.47°N, 109.16°W
Report Text: CYKY 231700Z 31008KT 15SM FEW012 FEW100 BKN240 M10/M13 A2982 RMK SC1AC1CI4 SC TR SLP140
Loading
Personal Weather Stations






























Interactive Weather Map New forecast layout! Learn more

10-Day Weather Forecast

Advertisements
Track Severe Weather on mobile